Time;durP1;ratioP1;P1;durP2;ratioP2;P2;SDS_P1;SDS_P2;PMS_P1;PMS_P2;Temp;Humidity;BMP_temperature;BMP_pressure;BME280_temperature;BME280_humidity;BME280_pressure;Samples;Min_cycle;Max_cycle;Signal;HPM_P1;HPM_P2
2024/01/20 00:01:22;;;;;;;8.07;1.08;;;;;;;;;;6253292;22;20019;-41
2024/01/20 00:03:51;;;;;;;4.50;0.98;;;;;;;;;;6270815;22;20470;-42
2024/01/20 00:06:20;;;;;;;5.22;0.90;;;;;;;;;;6265725;22;20015;-41
2024/01/20 00:08:48;;;;;;;4.50;1.02;;;;;;;;;;6255593;22;20041;-43
2024/01/20 00:11:16;;;;;;;4.60;1.07;;;;;;;;;;6265242;22;20019;-43
2024/01/20 00:13:44;;;;;;;5.00;1.00;;;;;;;;;;6256430;22;20023;-42
2024/01/20 00:16:12;;;;;;;4.38;0.60;;;;;;;;;;6268552;22;20023;-43
2024/01/20 00:18:41;;;;;;;5.13;0.93;;;;;;;;;;6256773;22;20213;-41
2024/01/20 00:21:09;;;;;;;5.55;0.93;;;;;;;;;;6268468;22;20478;-41
2024/01/20 00:23:38;;;;;;;5.30;1.03;;;;;;;;;;6258659;22;20039;-41
2024/01/20 00:26:06;;;;;;;5.43;0.90;;;;;;;;;;6271819;22;20015;-40
2024/01/20 00:28:34;;;;;;;5.55;0.90;;;;;;;;;;6217591;22;20030;-41
2024/01/20 00:31:04;;;;;;;4.13;0.73;;;;;;;;;;6270767;22;20346;-41
2024/01/20 00:33:32;;;;;;;4.53;0.98;;;;;;;;;;6265048;22;20042;-41
2024/01/20 00:36:00;;;;;;;4.43;0.80;;;;;;;;;;6261560;22;20027;-41
2024/01/20 00:38:28;;;;;;;5.70;0.70;;;;;;;;;;6271347;22;20503;-41
2024/01/20 00:40:58;;;;;;;4.22;0.70;;;;;;;;;;6253293;22;20586;-43
2024/01/20 00:43:25;;;;;;;6.10;0.60;;;;;;;;;;6264246;22;20468;-41
2024/01/20 00:45:53;;;;;;;5.25;0.80;;;;;;;;;;6227856;22;20764;-41
2024/01/20 00:48:21;;;;;;;4.40;0.77;;;;;;;;;;6224303;22;20023;-40
2024/01/20 00:50:49;;;;;;;6.00;0.80;;;;;;;;;;6271436;22;20045;-42
2024/01/20 00:53:17;;;;;;;5.40;0.77;;;;;;;;;;6243094;22;20019;-41
2024/01/20 00:55:45;;;;;;;4.38;1.00;;;;;;;;;;6259939;22;20766;-42
2024/01/20 00:58:15;;;;;;;5.00;0.80;;;;;;;;;;6251288;22;20060;-41
2024/01/20 01:00:44;;;;;;;6.30;0.60;;;;;;;;;;6261158;22;20029;-41
2024/01/20 01:03:13;;;;;;;3.10;0.40;;;;;;;;;;6262864;22;20019;-42
2024/01/20 01:05:41;;;;;;;5.60;0.80;;;;;;;;;;6256195;22;20029;-41
2024/01/20 01:08:09;;;;;;;5.13;0.77;;;;;;;;;;6263544;22;20008;-43
2024/01/20 01:10:38;;;;;;;4.68;0.70;;;;;;;;;;6231102;22;20068;-43
2024/01/20 01:13:04;;;;;;;5.57;1.13;;;;;;;;;;6276559;22;20046;-41
2024/01/20 01:15:33;;;;;;;5.25;0.57;;;;;;;;;;6274253;22;20021;-46
2024/01/20 01:18:01;;;;;;;4.40;0.70;;;;;;;;;;6265315;22;20534;-41
2024/01/20 01:20:29;;;;;;;6.93;0.80;;;;;;;;;;6283946;22;20053;-41
2024/01/20 01:22:57;;;;;;;5.85;0.70;;;;;;;;;;6265024;22;20380;-43
2024/01/20 01:25:25;;;;;;;5.70;0.80;;;;;;;;;;6275755;22;20023;-46
2024/01/20 01:27:53;;;;;;;5.72;0.88;;;;;;;;;;6233832;22;20042;-41
2024/01/20 01:30:20;;;;;;;4.78;0.65;;;;;;;;;;6268696;22;20107;-41
2024/01/20 01:32:49;;;;;;;5.60;0.90;;;;;;;;;;6254702;22;20121;-41
2024/01/20 01:35:17;;;;;;;7.75;1.00;;;;;;;;;;6245557;22;20092;-42
2024/01/20 01:37:45;;;;;;;8.30;1.20;;;;;;;;;;6266796;22;20026;-43
2024/01/20 01:40:13;;;;;;;5.20;1.00;;;;;;;;;;6268222;22;20047;-40
2024/01/20 01:42:42;;;;;;;11.25;1.50;;;;;;;;;;6257453;22;20073;-41
2024/01/20 01:45:10;;;;;;;5.15;0.95;;;;;;;;;;6270543;22;20472;-41
2024/01/20 01:47:37;;;;;;;4.63;0.98;;;;;;;;;;6271953;22;20563;-41
2024/01/20 01:50:07;;;;;;;4.73;1.20;;;;;;;;;;6254943;22;20363;-41
2024/01/20 01:52:38;;;;;;;5.15;1.20;;;;;;;;;;6259342;22;20500;-42
2024/01/20 01:55:06;;;;;;;4.72;0.80;;;;;;;;;;6273852;22;20019;-42
2024/01/20 01:57:35;;;;;;;5.18;1.17;;;;;;;;;;6262279;22;20015;-41
2024/01/20 02:00:04;;;;;;;6.15;0.95;;;;;;;;;;6273330;22;20086;-41
2024/01/20 02:02:32;;;;;;;5.70;0.83;;;;;;;;;;6264838;22;20094;-41
2024/01/20 02:04:59;;;;;;;6.22;1.02;;;;;;;;;;6270514;22;20315;-42
2024/01/20 02:07:30;;;;;;;4.70;1.00;;;;;;;;;;6261759;22;20454;-41
2024/01/20 02:09:57;;;;;;;5.97;1.13;;;;;;;;;;6277264;22;20381;-41
2024/01/20 02:12:26;;;;;;;6.40;1.17;;;;;;;;;;6258502;22;20034;-42
2024/01/20 02:14:54;;;;;;;5.50;0.97;;;;;;;;;;6271479;22;20015;-41
2024/01/20 02:17:22;;;;;;;6.95;1.30;;;;;;;;;;6263405;22;20015;-41
2024/01/20 02:19:50;;;;;;;5.45;0.80;;;;;;;;;;6271754;22;20011;-41
2024/01/20 02:22:19;;;;;;;5.53;0.90;;;;;;;;;;6267057;22;20047;-43
2024/01/20 02:24:47;;;;;;;4.70;1.10;;;;;;;;;;6261304;22;20019;-40
2024/01/20 02:27:16;;;;;;;4.77;1.13;;;;;;;;;;6256158;22;20015;-41
2024/01/20 02:29:43;;;;;;;5.72;1.20;;;;;;;;;;6240095;22;20726;-42
2024/01/20 02:32:11;;;;;;;4.63;0.88;;;;;;;;;;6272873;22;20023;-42
2024/01/20 02:34:39;;;;;;;4.90;1.10;;;;;;;;;;6253363;22;20465;-41
2024/01/20 02:37:08;;;;;;;8.05;1.10;;;;;;;;;;6273893;22;20015;-41
2024/01/20 02:39:37;;;;;;;5.37;0.90;;;;;;;;;;6271533;22;20011;-41
2024/01/20 02:42:08;;;;;;;4.38;0.60;;;;;;;;;;6264670;22;20019;-41
2024/01/20 02:44:36;;;;;;;4.32;1.20;;;;;;;;;;6253196;22;20015;-41
2024/01/20 02:47:04;;;;;;;4.82;0.70;;;;;;;;;;6261975;22;20015;-44
2024/01/20 02:49:32;;;;;;;5.45;0.98;;;;;;;;;;6259364;22;20016;-41
2024/01/20 02:51:59;;;;;;;4.53;0.80;;;;;;;;;;6248407;22;20019;-41
2024/01/20 02:54:27;;;;;;;5.93;0.65;;;;;;;;;;6233069;22;20015;-41
2024/01/20 02:56:57;;;;;;;3.80;0.70;;;;;;;;;;6271248;22;20035;-42
2024/01/20 02:59:24;;;;;;;4.35;0.70;;;;;;;;;;6252996;22;20425;-41
2024/01/20 03:01:52;;;;;;;4.40;0.98;;;;;;;;;;6257466;22;20720;-41
2024/01/20 03:04:37;;;;;;;4.03;0.90;;;;;;;;;;6285632;22;20470;-45
2024/01/20 03:07:05;;;;;;;4.28;0.50;;;;;;;;;;6231670;22;20284;-45
2024/01/20 03:09:33;;;;;;;6.47;1.10;;;;;;;;;;6281290;22;20030;-41
2024/01/20 03:12:02;;;;;;;4.75;1.00;;;;;;;;;;6274752;22;20025;-42
2024/01/20 03:14:31;;;;;;;5.43;1.00;;;;;;;;;;6272862;22;20464;-41
2024/01/20 03:16:59;;;;;;;4.60;0.80;;;;;;;;;;6277570;22;20015;-41
2024/01/20 03:19:26;;;;;;;6.90;0.98;;;;;;;;;;6274533;22;20521;-42
2024/01/20 03:21:54;;;;;;;5.15;0.93;;;;;;;;;;6270981;22;20110;-43
2024/01/20 03:24:22;;;;;;;4.50;0.70;;;;;;;;;;6281443;22;20015;-42
2024/01/20 03:26:50;;;;;;;4.38;0.60;;;;;;;;;;6233417;22;20011;-42
2024/01/20 03:29:20;;;;;;;5.60;0.80;;;;;;;;;;6221527;22;20477;-43
2024/01/20 03:31:48;;;;;;;4.95;0.80;;;;;;;;;;6265617;22;20023;-41
2024/01/20 03:34:17;;;;;;;7.00;0.70;;;;;;;;;;6268858;22;20011;-42
2024/01/20 03:36:48;;;;;;;5.22;1.10;;;;;;;;;;6281488;22;20019;-42
2024/01/20 03:39:17;;;;;;;5.03;0.70;;;;;;;;;;6273104;22;20073;-41
2024/01/20 03:41:44;;;;;;;5.23;0.70;;;;;;;;;;6284148;22;20023;-41
2024/01/20 03:44:12;;;;;;;4.43;0.90;;;;;;;;;;6273020;22;20305;-41
2024/01/20 03:46:41;;;;;;;5.32;0.80;;;;;;;;;;6271001;22;20026;-41
2024/01/20 03:49:09;;;;;;;6.07;0.82;;;;;;;;;;6269477;22;20102;-41
2024/01/20 03:51:38;;;;;;;5.45;0.70;;;;;;;;;;6242923;22;20023;-42
2024/01/20 03:54:05;;;;;;;6.90;1.03;;;;;;;;;;6278327;22;20125;-41
2024/01/20 03:56:33;;;;;;;6.88;0.70;;;;;;;;;;6270201;22;20377;-41
2024/01/20 03:59:03;;;;;;;4.80;0.60;;;;;;;;;;6278114;22;20073;-42
2024/01/20 04:01:49;;;;;;;5.43;0.68;;;;;;;;;;6274450;22;20023;-41
2024/01/20 04:04:17;;;;;;;6.90;0.80;;;;;;;;;;6267733;22;20019;-41
2024/01/20 04:06:45;;;;;;;5.23;0.70;;;;;;;;;;6286261;22;20015;-40
2024/01/20 04:09:13;;;;;;;4.03;0.70;;;;;;;;;;6263606;22;20023;-40
2024/01/20 04:11:42;;;;;;;6.35;0.80;;;;;;;;;;6280764;22;20015;-43
2024/01/20 04:14:10;;;;;;;4.50;0.60;;;;;;;;;;6270285;22;20422;-41
2024/01/20 04:16:37;;;;;;;3.75;0.80;;;;;;;;;;6279022;22;20019;-41
2024/01/20 04:19:07;;;;;;;5.80;1.10;;;;;;;;;;6269523;22;20023;-41
2024/01/20 04:21:34;;;;;;;7.65;0.70;;;;;;;;;;6277926;22;20019;-41
2024/01/20 04:24:02;;;;;;;5.90;0.70;;;;;;;;;;6277605;22;20015;-41
2024/01/20 04:26:30;;;;;;;7.95;0.90;;;;;;;;;;6276024;22;20016;-41
2024/01/20 04:28:58;;;;;;;7.20;0.73;;;;;;;;;;6235039;22;20528;-41
2024/01/20 04:31:25;;;;;;;10.60;1.23;;;;;;;;;;6253785;22;20442;-41
2024/01/20 04:33:54;;;;;;;8.23;0.90;;;;;;;;;;6274300;22;20045;-41
2024/01/20 04:36:23;;;;;;;4.45;0.70;;;;;;;;;;6263685;22;20446;-41
2024/01/20 04:38:51;;;;;;;5.32;0.82;;;;;;;;;;6275320;22;20022;-40
2024/01/20 04:41:19;;;;;;;6.07;0.70;;;;;;;;;;6274252;22;20609;-41
2024/01/20 04:43:46;;;;;;;5.40;0.93;;;;;;;;;;6273617;22;20019;-41
2024/01/20 04:46:14;;;;;;;5.22;1.15;;;;;;;;;;6273040;22;20019;-41
2024/01/20 04:48:42;;;;;;;7.15;1.08;;;;;;;;;;6270306;22;20081;-41
2024/01/20 04:51:10;;;;;;;3.55;0.75;;;;;;;;;;6267972;22;20054;-42
2024/01/20 04:53:39;;;;;;;6.68;1.02;;;;;;;;;;6243958;22;20022;-41
2024/01/20 04:56:07;;;;;;;6.87;0.93;;;;;;;;;;6276446;22;20023;-41
2024/01/20 04:58:35;;;;;;;5.05;0.98;;;;;;;;;;6258408;22;20445;-41
2024/01/20 05:01:02;;;;;;;8.65;0.80;;;;;;;;;;6284598;22;20015;-43
2024/01/20 05:03:30;;;;;;;6.70;0.68;;;;;;;;;;6268252;22;20449;-41
2024/01/20 05:05:58;;;;;;;11.32;0.95;;;;;;;;;;6281660;22;20033;-41
2024/01/20 05:08:26;;;;;;;5.50;0.70;;;;;;;;;;6273345;22;20740;-43
2024/01/20 05:10:55;;;;;;;7.32;0.93;;;;;;;;;;6285782;22;20011;-41
2024/01/20 05:13:23;;;;;;;9.50;0.90;;;;;;;;;;6278493;22;20130;-41
2024/01/20 05:15:50;;;;;;;8.52;1.00;;;;;;;;;;6266320;22;20379;-41
2024/01/20 05:18:18;;;;;;;5.65;0.98;;;;;;;;;;6279214;22;20046;-41
2024/01/20 05:20:46;;;;;;;4.57;0.67;;;;;;;;;;6273395;22;20019;-41
2024/01/20 05:23:14;;;;;;;5.70;0.68;;;;;;;;;;6280632;22;20026;-41
2024/01/20 05:25:42;;;;;;;6.47;0.77;;;;;;;;;;6250382;22;20056;-43
2024/01/20 05:28:11;;;;;;;4.32;0.82;;;;;;;;;;6215962;22;20027;-42
2024/01/20 05:30:38;;;;;;;4.63;0.70;;;;;;;;;;6258839;22;20054;-42
2024/01/20 05:33:08;;;;;;;6.10;0.90;;;;;;;;;;6277525;22;20015;-41
2024/01/20 05:35:37;;;;;;;5.40;1.02;;;;;;;;;;6273125;22;20011;-42
2024/01/20 05:38:05;;;;;;;8.93;0.82;;;;;;;;;;6252985;22;20026;-41
2024/01/20 05:40:33;;;;;;;9.95;1.00;;;;;;;;;;6274494;22;20011;-43
2024/01/20 05:43:00;;;;;;;7.55;1.08;;;;;;;;;;6279259;22;20058;-41
2024/01/20 05:45:29;;;;;;;4.80;0.80;;;;;;;;;;6265015;22;20595;-42
2024/01/20 05:47:57;;;;;;;5.80;1.30;;;;;;;;;;6256036;22;20795;-41
2024/01/20 05:50:27;;;;;;;4.53;0.70;;;;;;;;;;6253088;22;20023;-41
2024/01/20 05:52:57;;;;;;;7.32;1.20;;;;;;;;;;6251470;22;20023;-41
2024/01/20 05:55:25;;;;;;;8.20;1.10;;;;;;;;;;6264008;22;20430;-42
2024/01/20 05:57:53;;;;;;;6.80;0.77;;;;;;;;;;6253714;22;20041;-41
2024/01/20 06:00:22;;;;;;;6.15;0.57;;;;;;;;;;6264922;22;20104;-41
2024/01/20 06:02:51;;;;;;;4.80;0.80;;;;;;;;;;6256413;22;20319;-41
2024/01/20 06:05:19;;;;;;;4.28;0.80;;;;;;;;;;6270082;22;20465;-41
2024/01/20 06:07:47;;;;;;;4.53;0.80;;;;;;;;;;6258508;22;20041;-42
2024/01/20 06:10:15;;;;;;;5.63;1.10;;;;;;;;;;6264268;22;20015;-42
2024/01/20 06:12:43;;;;;;;5.20;1.02;;;;;;;;;;6263669;22;20026;-42
2024/01/20 06:15:11;;;;;;;4.75;0.90;;;;;;;;;;6250764;22;20137;-44
2024/01/20 06:17:39;;;;;;;6.18;0.70;;;;;;;;;;6257900;22;20547;-41
2024/01/20 06:20:08;;;;;;;4.40;0.80;;;;;;;;;;6278439;22;20019;-42
2024/01/20 06:22:39;;;;;;;5.73;0.80;;;;;;;;;;6258048;22;20065;-42
2024/01/20 06:25:07;;;;;;;6.22;0.75;;;;;;;;;;6232393;22;20019;-42
2024/01/20 06:27:35;;;;;;;6.65;1.20;;;;;;;;;;6235223;22;20042;-41
2024/01/20 06:30:03;;;;;;;4.07;0.63;;;;;;;;;;6253728;22;20512;-41
2024/01/20 06:32:31;;;;;;;7.32;0.85;;;;;;;;;;6258357;22;20775;-41
2024/01/20 06:34:59;;;;;;;6.33;0.47;;;;;;;;;;6269499;22;20023;-41
2024/01/20 06:37:29;;;;;;;3.03;0.60;;;;;;;;;;6251280;22;20085;-42
2024/01/20 06:39:57;;;;;;;3.92;0.47;;;;;;;;;;6268025;22;20019;-41
2024/01/20 06:42:24;;;;;;;5.63;0.50;;;;;;;;;;6256012;22;20019;-43
2024/01/20 06:44:52;;;;;;;4.32;0.50;;;;;;;;;;6264858;22;20410;-41
2024/01/20 06:47:21;;;;;;;6.07;0.70;;;;;;;;;;6265431;22;20397;-42
2024/01/20 06:49:50;;;;;;;4.15;0.60;;;;;;;;;;6265840;22;20808;-44
2024/01/20 06:52:21;;;;;;;5.38;1.13;;;;;;;;;;6238060;22;20045;-41
2024/01/20 06:54:50;;;;;;;7.72;0.60;;;;;;;;;;6274553;22;20511;-41
2024/01/20 06:57:18;;;;;;;5.35;0.75;;;;;;;;;;6240408;22;20073;-40
2024/01/20 06:59:45;;;;;;;2.63;0.30;;;;;;;;;;6270470;22;20034;-41
2024/01/20 07:02:13;;;;;;;5.32;0.50;;;;;;;;;;6269297;22;20019;-41
2024/01/20 07:04:42;;;;;;;4.72;0.60;;;;;;;;;;6234358;22;20481;-42
2024/01/20 07:07:10;;;;;;;7.03;0.73;;;;;;;;;;6265166;22;20019;-41
2024/01/20 07:09:40;;;;;;;5.53;0.90;;;;;;;;;;6267312;22;20019;-42
2024/01/20 07:12:09;;;;;;;3.37;0.47;;;;;;;;;;6280219;22;20095;-41
2024/01/20 07:14:42;;;;;;;5.93;0.55;;;;;;;;;;6259038;22;20023;-41
2024/01/20 07:17:09;;;;;;;3.78;0.52;;;;;;;;;;6263948;22;20015;-41
2024/01/20 07:19:37;;;;;;;5.53;0.90;;;;;;;;;;6259733;22;20015;-41
2024/01/20 07:22:05;;;;;;;4.10;0.47;;;;;;;;;;6261240;22;20102;-41
2024/01/20 07:24:33;;;;;;;4.60;0.83;;;;;;;;;;6258125;22;20069;-41
2024/01/20 07:27:01;;;;;;;3.95;0.60;;;;;;;;;;6248957;22;20098;-41
2024/01/20 07:29:30;;;;;;;4.85;0.50;;;;;;;;;;6250708;22;20498;-43
2024/01/20 07:31:59;;;;;;;5.40;0.57;;;;;;;;;;6272550;22;20454;-42
2024/01/20 07:34:27;;;;;;;8.85;0.73;;;;;;;;;;6253583;22;20026;-40
2024/01/20 07:36:55;;;;;;;6.10;0.67;;;;;;;;;;6259556;22;20073;-41
2024/01/20 07:39:22;;;;;;;7.03;0.50;;;;;;;;;;6272030;22;20306;-40
2024/01/20 07:41:50;;;;;;;5.18;0.50;;;;;;;;;;6281758;22;20015;-42
2024/01/20 07:44:18;;;;;;;4.70;0.43;;;;;;;;;;6261353;22;20069;-41
2024/01/20 07:46:48;;;;;;;7.03;0.70;;;;;;;;;;6267658;22;20018;-42
2024/01/20 07:49:16;;;;;;;4.33;0.60;;;;;;;;;;6271984;22;20018;-41
2024/01/20 07:51:44;;;;;;;3.63;0.50;;;;;;;;;;6266419;22;20022;-42
2024/01/20 07:54:12;;;;;;;5.68;0.60;;;;;;;;;;6268777;22;20019;-41
2024/01/20 07:56:40;;;;;;;3.55;0.40;;;;;;;;;;6266153;22;20385;-41
2024/01/20 07:59:11;;;;;;;5.03;0.57;;;;;;;;;;6242247;22;20094;-45
2024/01/20 08:01:39;;;;;;;5.30;0.67;;;;;;;;;;6256900;22;20654;-42
2024/01/20 08:04:12;;;;;;;5.25;0.55;;;;;;;;;;6243026;22;20022;-41
2024/01/20 08:06:41;;;;;;;7.22;0.60;;;;;;;;;;6256769;22;20019;-42
2024/01/20 08:09:10;;;;;;;5.75;0.63;;;;;;;;;;6261637;22;20619;-42
2024/01/20 08:11:38;;;;;;;5.50;0.77;;;;;;;;;;6262739;22;20015;-43
2024/01/20 08:14:05;;;;;;;7.77;0.40;;;;;;;;;;6262754;22;20019;-41
2024/01/20 08:16:33;;;;;;;4.00;0.50;;;;;;;;;;6255288;22;20525;-42
2024/01/20 08:19:03;;;;;;;4.57;0.50;;;;;;;;;;6230578;22;20015;-40
2024/01/20 08:21:33;;;;;;;4.25;0.70;;;;;;;;;;6186224;22;20065;-42
2024/01/20 08:24:01;;;;;;;4.75;0.70;;;;;;;;;;6236439;22;20053;-40
2024/01/20 08:26:32;;;;;;;7.00;0.50;;;;;;;;;;6201302;22;20309;-41
2024/01/20 08:29:00;;;;;;;5.50;0.50;;;;;;;;;;6203052;22;20360;-42
2024/01/20 08:31:27;;;;;;;6.07;0.73;;;;;;;;;;6222674;22;20472;-40
2024/01/20 08:33:55;;;;;;;7.47;0.85;;;;;;;;;;6257439;22;20073;-42
2024/01/20 08:36:24;;;;;;;5.25;0.60;;;;;;;;;;6259401;22;20019;-41
2024/01/20 08:38:53;;;;;;;5.27;0.80;;;;;;;;;;6266150;22;20060;-41
2024/01/20 08:41:21;;;;;;;4.32;0.40;;;;;;;;;;6260654;22;20060;-41
2024/01/20 08:43:49;;;;;;;4.75;0.43;;;;;;;;;;6261728;22;20050;-41
2024/01/20 08:46:17;;;;;;;5.05;0.70;;;;;;;;;;6271049;22;20043;-40
2024/01/20 08:48:45;;;;;;;5.57;0.60;;;;;;;;;;6251279;22;20028;-40
2024/01/20 08:51:13;;;;;;;7.80;0.80;;;;;;;;;;6277199;22;20316;-43
2024/01/20 08:53:42;;;;;;;5.65;0.80;;;;;;;;;;6266324;22;20042;-41
2024/01/20 08:56:12;;;;;;;6.03;0.52;;;;;;;;;;6264843;22;20031;-41
2024/01/20 08:58:40;;;;;;;7.75;0.85;;;;;;;;;;6276403;22;20015;-41
2024/01/20 09:01:08;;;;;;;4.85;0.60;;;;;;;;;;6241320;22;20057;-42
2024/01/20 09:03:36;;;;;;;4.30;0.60;;;;;;;;;;6266800;22;20098;-41
2024/01/20 09:06:04;;;;;;;6.28;0.65;;;;;;;;;;6250026;22;20038;-41
2024/01/20 09:08:32;;;;;;;6.93;1.17;;;;;;;;;;6270487;22;20137;-41
2024/01/20 09:10:59;;;;;;;4.30;0.50;;;;;;;;;;6262218;22;20541;-40
2024/01/20 09:13:33;;;;;;;5.82;0.68;;;;;;;;;;6261142;22;20019;-42
2024/01/20 09:16:01;;;;;;;7.30;1.23;;;;;;;;;;6237726;22;20077;-41
2024/01/20 09:18:29;;;;;;;5.53;0.80;;;;;;;;;;6249913;22;20050;-41
2024/01/20 09:20:57;;;;;;;4.18;0.70;;;;;;;;;;6265607;22;20473;-41
2024/01/20 09:23:25;;;;;;;5.07;0.70;;;;;;;;;;6270792;22;20011;-41
2024/01/20 09:25:53;;;;;;;6.47;0.70;;;;;;;;;;6264876;22;20043;-41
2024/01/20 09:28:22;;;;;;;5.27;0.60;;;;;;;;;;6246802;22;20019;-41
2024/01/20 09:30:51;;;;;;;5.15;0.80;;;;;;;;;;6260839;22;20309;-41
2024/01/20 09:33:19;;;;;;;7.57;0.90;;;;;;;;;;6265090;22;20019;-40
2024/01/20 09:35:47;;;;;;;5.57;0.75;;;;;;;;;;6262754;22;20450;-41
2024/01/20 09:38:15;;;;;;;11.27;1.20;;;;;;;;;;6266599;22;20019;-41
2024/01/20 09:40:43;;;;;;;6.13;1.10;;;;;;;;;;6254798;22;20019;-41
2024/01/20 09:43:13;;;;;;;8.07;1.13;;;;;;;;;;6268031;22;20391;-41
2024/01/20 09:45:41;;;;;;;4.93;0.65;;;;;;;;;;6259871;22;20106;-41
2024/01/20 09:48:10;;;;;;;9.57;1.00;;;;;;;;;;6253352;22;20015;-41
2024/01/20 09:50:38;;;;;;;6.78;0.90;;;;;;;;;;6261697;22;20015;-41
2024/01/20 09:53:13;;;;;;;6.23;1.07;;;;;;;;;;6251329;22;20078;-43
2024/01/20 09:55:41;;;;;;;7.75;0.85;;;;;;;;;;6235990;22;20029;-41
2024/01/20 09:58:11;;;;;;;4.78;0.70;;;;;;;;;;6257978;22;20399;-41
2024/01/20 10:00:39;;;;;;;5.57;0.90;;;;;;;;;;6233843;22;20015;-41
2024/01/20 10:03:08;;;;;;;4.88;0.65;;;;;;;;;;6219062;22;20223;-44
2024/01/20 10:05:39;;;;;;;8.40;0.90;;;;;;;;;;6263782;22;20394;-42
2024/01/20 10:08:07;;;;;;;5.47;0.70;;;;;;;;;;6256409;22;20351;-42
2024/01/20 10:10:35;;;;;;;12.63;0.90;;;;;;;;;;6265832;22;20279;-41
2024/01/20 10:13:02;;;;;;;5.88;0.90;;;;;;;;;;6261478;22;20076;-41
2024/01/20 10:15:35;;;;;;;6.70;1.02;;;;;;;;;;6270411;22;20060;-42
2024/01/20 10:18:08;;;;;;;5.40;0.80;;;;;;;;;;6268908;22;20025;-41
2024/01/20 10:20:36;;;;;;;5.53;0.80;;;;;;;;;;6263413;22;20019;-41
2024/01/20 10:23:06;;;;;;;10.95;0.70;;;;;;;;;;6230810;22;20019;-42
2024/01/20 10:25:35;;;;;;;4.53;0.70;;;;;;;;;;6262436;22;20011;-42
2024/01/20 10:28:03;;;;;;;6.82;0.90;;;;;;;;;;6230255;22;20390;-42
2024/01/20 10:30:32;;;;;;;7.17;0.80;;;;;;;;;;6263225;22;20019;-41
2024/01/20 10:33:00;;;;;;;8.75;1.00;;;;;;;;;;6263148;22;20094;-43
2024/01/20 10:35:31;;;;;;;7.20;1.48;;;;;;;;;;6265414;22;20450;-41
2024/01/20 10:38:01;;;;;;;7.47;1.20;;;;;;;;;;6257632;22;20022;-41
2024/01/20 10:40:30;;;;;;;5.95;0.73;;;;;;;;;;6227648;22;20030;-41
2024/01/20 10:43:01;;;;;;;9.00;1.30;;;;;;;;;;6253140;22;20094;-41
2024/01/20 10:45:33;;;;;;;9.82;1.23;;;;;;;;;;6255734;22;20020;-41
2024/01/20 10:48:05;;;;;;;6.43;1.00;;;;;;;;;;6260984;22;20026;-41
2024/01/20 10:50:41;;;;;;;8.23;0.88;;;;;;;;;;6273011;22;20022;-41
2024/01/20 10:53:10;;;;;;;7.13;1.10;;;;;;;;;;6263166;22;20019;-41
2024/01/20 10:55:40;;;;;;;9.17;1.60;;;;;;;;;;6268394;22;20012;-40
2024/01/20 10:58:08;;;;;;;8.77;1.23;;;;;;;;;;6243570;22;20291;-43
2024/01/20 11:00:38;;;;;;;5.60;0.75;;;;;;;;;;6273626;22;20588;-41
2024/01/20 11:03:07;;;;;;;7.32;0.80;;;;;;;;;;6250872;22;20100;-41
2024/01/20 11:05:34;;;;;;;9.73;0.80;;;;;;;;;;6272304;22;20011;-42
2024/01/20 11:08:06;;;;;;;5.47;0.70;;;;;;;;;;6259778;22;20358;-41
2024/01/20 11:10:42;;;;;;;6.82;1.00;;;;;;;;;;6276728;22;20516;-41
2024/01/20 11:13:11;;;;;;;7.03;0.60;;;;;;;;;;6267029;22;20043;-41
2024/01/20 11:15:40;;;;;;;5.20;1.10;;;;;;;;;;6244443;22;20015;-40
2024/01/20 11:18:17;;;;;;;6.53;0.77;;;;;;;;;;6276610;22;20029;-42
2024/01/20 11:20:57;;;;;;;6.83;1.30;;;;;;;;;;6263797;22;20027;-43
2024/01/20 11:23:25;;;;;;;7.68;1.27;;;;;;;;;;6270743;22;20102;-42
2024/01/20 11:25:54;;;;;;;8.38;1.10;;;;;;;;;;6272906;22;20508;-42
2024/01/20 11:28:27;;;;;;;4.65;0.63;;;;;;;;;;6249140;22;20015;-41
2024/01/20 11:30:54;;;;;;;9.27;0.75;;;;;;;;;;6236209;22;20030;-41
2024/01/20 11:33:26;;;;;;;6.73;0.60;;;;;;;;;;6271262;22;20015;-41
2024/01/20 11:35:55;;;;;;;10.40;1.27;;;;;;;;;;6277575;22;20016;-41
2024/01/20 11:38:23;;;;;;;6.53;0.90;;;;;;;;;;6269220;22;20019;-42
2024/01/20 11:40:59;;;;;;;9.32;0.95;;;;;;;;;;6268903;22;20019;-41
2024/01/20 11:43:27;;;;;;;8.55;1.20;;;;;;;;;;6268415;22;20381;-42
2024/01/20 11:45:56;;;;;;;9.80;1.13;;;;;;;;;;6277997;22;20467;-41
2024/01/20 11:48:24;;;;;;;7.38;1.00;;;;;;;;;;6257760;22;20176;-41
2024/01/20 11:50:52;;;;;;;9.23;1.05;;;;;;;;;;6284005;22;20114;-41
2024/01/20 11:53:20;;;;;;;12.18;1.23;;;;;;;;;;6267056;22;20019;-42
2024/01/20 11:55:55;;;;;;;6.93;1.75;;;;;;;;;;6250079;22;20813;-41
2024/01/20 11:58:24;;;;;;;5.60;1.43;;;;;;;;;;6264758;22;20050;-43
2024/01/20 12:00:53;;;;;;;8.25;1.48;;;;;;;;;;6269161;22;20023;-43
2024/01/20 12:03:22;;;;;;;8.85;1.52;;;;;;;;;;6261507;22;20015;-42
2024/01/20 12:05:51;;;;;;;6.70;1.13;;;;;;;;;;6260737;22;20354;-43
2024/01/20 12:08:19;;;;;;;10.25;1.30;;;;;;;;;;6274450;22;20030;-45
2024/01/20 12:10:47;;;;;;;10.40;1.40;;;;;;;;;;6272174;22;20012;-45
2024/01/20 12:13:16;;;;;;;9.75;1.23;;;;;;;;;;6248018;22;20019;-46
2024/01/20 12:15:47;;;;;;;8.27;1.45;;;;;;;;;;6270116;22;20069;-41
2024/01/20 12:18:16;;;;;;;8.88;1.73;;;;;;;;;;6247383;22;20061;-41
2024/01/20 12:20:45;;;;;;;12.20;1.80;;;;;;;;;;6268263;22;20026;-44
2024/01/20 12:23:17;;;;;;;9.43;1.50;;;;;;;;;;6277330;22;20418;-41
2024/01/20 12:25:45;;;;;;;7.97;1.48;;;;;;;;;;6251563;22;20016;-41
2024/01/20 12:28:13;;;;;;;7.88;1.38;;;;;;;;;;6239665;22;20589;-43
2024/01/20 12:30:41;;;;;;;6.45;1.17;;;;;;;;;;6262171;22;20039;-44
2024/01/20 12:33:12;;;;;;;5.25;1.30;;;;;;;;;;6249450;22;20015;-42
2024/01/20 12:35:40;;;;;;;7.20;1.40;;;;;;;;;;6267436;22;20054;-41
2024/01/20 12:38:08;;;;;;;8.65;1.30;;;;;;;;;;6268774;22;20026;-41
2024/01/20 12:40:37;;;;;;;5.25;1.45;;;;;;;;;;6275480;22;20167;-41
2024/01/20 12:43:06;;;;;;;8.07;1.48;;;;;;;;;;6245254;22;20015;-41
2024/01/20 12:45:34;;;;;;;9.35;1.73;;;;;;;;;;6279028;22;20019;-42
2024/01/20 12:48:04;;;;;;;7.73;1.67;;;;;;;;;;6269838;22;20050;-42
2024/01/20 12:50:34;;;;;;;7.97;1.50;;;;;;;;;;6272070;22;20033;-41
2024/01/20 12:53:02;;;;;;;11.50;1.55;;;;;;;;;;6268848;22;20027;-42
2024/01/20 12:55:30;;;;;;;8.13;1.45;;;;;;;;;;6279666;22;20022;-41
2024/01/20 12:57:59;;;;;;;11.20;1.83;;;;;;;;;;6268472;22;20023;-41
2024/01/20 13:00:26;;;;;;;8.80;1.70;;;;;;;;;;6274784;22;20015;-41
2024/01/20 13:02:55;;;;;;;9.88;1.83;;;;;;;;;;6262652;22;20597;-42
2024/01/20 13:05:22;;;;;;;10.40;1.75;;;;;;;;;;6243876;22;20015;-41
2024/01/20 13:07:51;;;;;;;9.73;1.75;;;;;;;;;;6269355;22;20019;-41
2024/01/20 13:10:19;;;;;;;15.07;1.98;;;;;;;;;;6274554;22;20085;-41
2024/01/20 13:12:47;;;;;;;7.37;1.47;;;;;;;;;;6268841;22;20015;-42
2024/01/20 13:15:15;;;;;;;10.15;1.77;;;;;;;;;;6275482;22;20060;-41
2024/01/20 13:17:43;;;;;;;9.02;1.98;;;;;;;;;;6266105;22;20023;-42
2024/01/20 13:20:12;;;;;;;12.07;2.00;;;;;;;;;;6253428;22;20019;-41
2024/01/20 13:22:41;;;;;;;9.15;1.58;;;;;;;;;;6270121;22;20422;-41
2024/01/20 13:25:11;;;;;;;7.37;1.83;;;;;;;;;;6269551;22;20019;-42
2024/01/20 13:27:39;;;;;;;8.25;1.75;;;;;;;;;;6261141;22;20545;-41
2024/01/20 13:30:10;;;;;;;8.23;1.70;;;;;;;;;;6262728;22;20019;-41
2024/01/20 13:32:38;;;;;;;9.27;1.90;;;;;;;;;;6269201;22;20015;-41
2024/01/20 13:35:07;;;;;;;11.13;1.92;;;;;;;;;;6272097;22;20544;-41
2024/01/20 13:37:35;;;;;;;7.07;1.70;;;;;;;;;;6267442;22;20022;-41
2024/01/20 13:40:05;;;;;;;7.22;1.83;;;;;;;;;;6266889;22;20102;-43
2024/01/20 13:42:34;;;;;;;8.98;1.50;;;;;;;;;;6265087;22;20458;-42
2024/01/20 13:45:02;;;;;;;14.07;2.08;;;;;;;;;;6261696;22;20015;-42
2024/01/20 13:47:30;;;;;;;8.30;1.58;;;;;;;;;;6268304;22;20016;-44
2024/01/20 13:49:58;;;;;;;7.90;1.87;;;;;;;;;;6255580;22;20020;-42
2024/01/20 13:52:26;;;;;;;9.77;1.60;;;;;;;;;;6273274;22;20458;-42
2024/01/20 13:54:54;;;;;;;8.75;1.38;;;;;;;;;;6266800;22;20447;-43
2024/01/20 13:57:23;;;;;;;10.73;1.38;;;;;;;;;;6277298;22;20039;-41
2024/01/20 13:59:52;;;;;;;10.75;1.75;;;;;;;;;;6266376;22;20023;-42
2024/01/20 14:02:20;;;;;;;9.80;1.80;;;;;;;;;;6275103;22;20141;-44
2024/01/20 14:04:47;;;;;;;13.75;1.55;;;;;;;;;;6265621;22;20498;-42
2024/01/20 14:07:15;;;;;;;9.95;1.92;;;;;;;;;;6277504;22;20030;-43
2024/01/20 14:09:43;;;;;;;4.85;1.20;;;;;;;;;;6267444;22;20117;-43
2024/01/20 14:12:11;;;;;;;10.70;1.88;;;;;;;;;;6279432;22;20015;-41
2024/01/20 14:14:39;;;;;;;12.50;1.87;;;;;;;;;;6264463;22;20023;-45
2024/01/20 14:17:09;;;;;;;8.48;1.50;;;;;;;;;;6281856;22;20016;-41
2024/01/20 14:19:37;;;;;;;8.50;1.48;;;;;;;;;;6265880;22;20350;-42
2024/01/20 14:22:07;;;;;;;9.57;1.30;;;;;;;;;;6276219;22;20019;-42
2024/01/20 14:24:37;;;;;;;10.77;1.70;;;;;;;;;;6265373;22;20015;-41
2024/01/20 14:27:06;;;;;;;13.47;1.50;;;;;;;;;;6223106;22;20750;-42
2024/01/20 14:29:34;;;;;;;7.18;1.08;;;;;;;;;;6252511;22;20377;-41
2024/01/20 14:32:02;;;;;;;11.65;1.23;;;;;;;;;;6271815;22;20023;-41
2024/01/20 14:34:32;;;;;;;9.90;1.25;;;;;;;;;;6276475;22;20092;-42
2024/01/20 14:36:59;;;;;;;10.35;1.25;;;;;;;;;;6262452;22;20537;-41
2024/01/20 14:39:31;;;;;;;11.20;1.37;;;;;;;;;;6271323;22;20019;-41
2024/01/20 14:41:59;;;;;;;8.75;1.80;;;;;;;;;;6283479;22;20022;-41
2024/01/20 14:44:27;;;;;;;8.70;1.63;;;;;;;;;;6240689;22;20106;-41
2024/01/20 14:46:55;;;;;;;7.90;1.10;;;;;;;;;;6264733;22;20020;-41
2024/01/20 14:49:23;;;;;;;6.90;1.08;;;;;;;;;;6274100;22;20473;-42
2024/01/20 14:51:52;;;;;;;8.53;1.73;;;;;;;;;;6270912;22;20015;-41